Darstellungsparameter: Aktuell verwendete Einstellungen:
Skalierung der Graphiken ... ?
xyx+y,   Skalierungsfaktor:      Skalierung: Modus: x, Faktor: 1
Darstellungszeitraum ... ?
Vom - - bis: - -   Zeitraum: 03.07.2019 - 05.07.2019
Min/Max/Avg-Anzeige ... ?
Zeige MMA aktuell
Zeige MMA Monat
Zeige MMA alles
Zeige --A aktuell
Zeige --A Monat
Zeige --A alles
Keine MMA-Anzeige
MMA:
Average (ber die Originaldaten)
MMA-Basis: 03.07.2019 - 05.07.2019
Quicknavigation für Darstellung... ?
Tage:      1T, 2T, 3T, 5T -1T -2T -3T -5T +1T +2T +3T +5T
Wochen: 1W, 2W, 3W -1W -2W -3W +1W +2W +3W
Monate: 1M, 3M, 6M -1M -3M -6M +1M +3M +6M
Jahre:    1J, 3J, 5J, 10J -1J -3J -5J -10J +1J +3J +5J +10J
Nutze für die Darstellung ... ?
Originaldaten oder Mittelwerte auf ...
Stundenbasis Tagesbasis Wochenbasis
Monatsbasis Jahresbasis      Datenbasis: Original-Daten
Darstellen als:
Statistik (Auto) Statistik J:M      Darstellung:
Zur Graphik,    zurück zur Übersicht aller Sensoren.
 
Tabellarische Datenbersicht: ?
 
Sensor: Nr:Datum:Temp:Abs-Feuchte:Windchill:Wind:
Aussen-T/F 1 03-07-2019 00:00:00 15.7 C 8.7 g/m*3 15.7 C 0 km/h
2 03-07-2019 00:05:00 15.6 C 8.64 g/m*3 15.6 C 0 km/h
3 03-07-2019 00:10:00 15.3 C 8.62 g/m*3 15.3 C 0 km/h
4 03-07-2019 00:15:00 15.2 C 8.7 g/m*3 15.2 C 0 km/h
5 03-07-2019 00:20:00 15.1 C 8.64 g/m*3 15.1 C 0 km/h
6 03-07-2019 00:25:00 14.9 C 8.67 g/m*3 14.9 C 0 km/h
7 03-07-2019 00:30:00 14.7 C 8.56 g/m*3 14.7 C 0 km/h
8 03-07-2019 00:35:00 14.5 C 8.58 g/m*3 14.5 C 0 km/h
9 03-07-2019 00:40:00 14.3 C 8.6 g/m*3 14.3 C 0 km/h
10 03-07-2019 00:45:00 14.2 C 8.55 g/m*3 14.2 C 0 km/h
11 03-07-2019 00:50:00 14.2 C 8.67 g/m*3 14.2 C 0 km/h
12 03-07-2019 00:55:00 14 C 8.56 g/m*3 14 C 0 km/h
13 03-07-2019 01:00:00 13.9 C 8.63 g/m*3 13.9 C 0 km/h
14 03-07-2019 01:05:00 13.7 C 8.64 g/m*3 13.7 C 0 km/h
15 03-07-2019 01:10:00 13.6 C 8.47 g/m*3 13.6 C 0 km/h
16 03-07-2019 01:15:00 13.4 C 8.49 g/m*3 13.4 C 0 km/h
17 03-07-2019 01:20:00 13.3 C 8.43 g/m*3 13.3 C 0 km/h
18 03-07-2019 01:25:00 13.2 C 8.5 g/m*3 13.2 C 0 km/h
19 03-07-2019 01:30:00 13.2 C 8.5 g/m*3 13.2 C 0 km/h
20 03-07-2019 01:35:00 13.1 C 8.44 g/m*3 13.1 C 0 km/h
21 03-07-2019 01:40:00 12.9 C 8.34 g/m*3 12.9 C 0 km/h
22 03-07-2019 01:45:00 12.9 C 8.45 g/m*3 12.9 C 0 km/h
23 03-07-2019 01:50:00 12.8 C 8.51 g/m*3 12.8 C 0 km/h
24 03-07-2019 01:55:00 12.8 C 8.4 g/m*3 12.8 C 0 km/h
25 03-07-2019 02:00:00 12.7 C 8.46 g/m*3 12.7 C 0 km/h
Sensor: Nr:Datum:Temp:Abs-Feuchte:Windchill:Wind:
Aussen-T/F 26 03-07-2019 02:05:00 12.7 C 8.46 g/m*3 12.7 C 0 km/h
27 03-07-2019 02:10:00 12.6 C 8.52 g/m*3 12.6 C 0 km/h
28 03-07-2019 02:15:00 12.5 C 8.47 g/m*3 12.5 C 0 km/h
29 03-07-2019 02:20:00 12.4 C 8.41 g/m*3 12.4 C 0 km/h
30 03-07-2019 02:25:00 12.4 C 8.41 g/m*3 12.4 C 0 km/h
31 03-07-2019 02:30:00 12.3 C 8.36 g/m*3 12.3 C 0 km/h
32 03-07-2019 02:35:00 12.2 C 8.42 g/m*3 12.2 C 0 km/h
33 03-07-2019 02:40:00 12.1 C 8.36 g/m*3 12.1 C 0 km/h
34 03-07-2019 02:45:00 12 C 8.31 g/m*3 12 C 0 km/h
35 03-07-2019 02:50:00 11.9 C 8.26 g/m*3 11.9 C 0 km/h
36 03-07-2019 02:55:00 11.9 C 8.26 g/m*3 11.9 C 0 km/h
37 03-07-2019 03:00:00 11.8 C 8.31 g/m*3 11.8 C 0 km/h
38 03-07-2019 03:05:00 11.8 C 8.31 g/m*3 11.8 C 0 km/h
39 03-07-2019 03:10:00 11.7 C 8.37 g/m*3 11.7 C 0 km/h
40 03-07-2019 03:15:00 11.7 C 8.37 g/m*3 11.7 C 0 km/h
41 03-07-2019 03:20:00 11.6 C 8.32 g/m*3 11.6 C 0 km/h
42 03-07-2019 03:25:00 11.6 C 8.32 g/m*3 11.6 C 0 km/h
43 03-07-2019 03:30:00 11.4 C 8.31 g/m*3 11.4 C 0 km/h
44 03-07-2019 03:35:00 11.4 C 8.31 g/m*3 11.4 C 0 km/h
45 03-07-2019 03:40:00 11.3 C 8.26 g/m*3 11.3 C 0 km/h
46 03-07-2019 03:45:00 11.2 C 8.21 g/m*3 11.2 C 0 km/h
47 03-07-2019 03:50:00 11.1 C 8.26 g/m*3 11.1 C 0 km/h
48 03-07-2019 03:55:00 11.1 C 8.26 g/m*3 11.1 C 0 km/h
49 03-07-2019 04:00:00 11 C 8.21 g/m*3 11 C 0 km/h
50 03-07-2019 04:05:00 10.9 C 8.16 g/m*3 10.9 C 0 km/h
Sensor: Nr:Datum:Temp:Abs-Feuchte:Windchill:Wind:
Aussen-T/F 51 03-07-2019 04:10:00 10.8 C 8.11 g/m*3 10.8 C 0 km/h
52 03-07-2019 04:15:00 10.8 C 8.2 g/m*3 10.8 C 0 km/h
53 03-07-2019 04:20:00 10.7 C 8.15 g/m*3 10.7 C 0 km/h
54 03-07-2019 04:25:00 10.7 C 8.15 g/m*3 10.7 C 0 km/h
55 03-07-2019 04:30:00 10.6 C 8.1 g/m*3 10.6 C 0 km/h
56 03-07-2019 04:35:00 10.6 C 8.2 g/m*3 10.6 C 0 km/h
57 03-07-2019 04:40:00 10.5 C 8.15 g/m*3 10.5 C 0 km/h
58 03-07-2019 04:45:00 10.4 C 8.1 g/m*3 10.4 C 0 km/h
59 03-07-2019 04:50:00 10.4 C 8.1 g/m*3 10.4 C 0 km/h
60 03-07-2019 04:55:00 10.4 C 8.19 g/m*3 10.4 C 0 km/h
61 03-07-2019 05:00:00 10.3 C 8.14 g/m*3 10.3 C 0 km/h
62 03-07-2019 05:05:00 10.3 C 8.14 g/m*3 10.3 C 0 km/h
63 03-07-2019 05:10:00 10.3 C 8.14 g/m*3 10.3 C 0 km/h
64 03-07-2019 05:15:00 10.2 C 8.09 g/m*3 10.2 C 0 km/h
65 03-07-2019 05:20:00 10.1 C 8.04 g/m*3 10.1 C 0 km/h
66 03-07-2019 05:25:00 10.1 C 8.13 g/m*3 10.1 C 0 km/h
67 03-07-2019 05:30:00 10.1 C 8.13 g/m*3 10.1 C 0 km/h
68 03-07-2019 05:35:00 10 C 8.08 g/m*3 10 C 0 km/h
69 03-07-2019 05:40:00 10 C 8.08 g/m*3 10 C 0 km/h
70 03-07-2019 05:45:00 9.9 C 8.12 g/m*3 9.9 C 0 km/h
71 03-07-2019 05:50:00 10 C 8.17 g/m*3 10 C 0 km/h
72 03-07-2019 05:55:00 10 C 8.17 g/m*3 10 C 0 km/h
73 03-07-2019 06:00:00 10 C 8.17 g/m*3 10 C 0 km/h
74 03-07-2019 06:05:00 10 C 8.17 g/m*3 10 C 0 km/h
75 03-07-2019 06:10:00 10 C 8.27 g/m*3 10 C 0 km/h
Sensor: Nr:Datum:Temp:Abs-Feuchte:Windchill:Wind:
Aussen-T/F 76 03-07-2019 06:15:00 10.1 C 8.32 g/m*3 10.1 C 0 km/h
77 03-07-2019 06:20:00 10.1 C 8.32 g/m*3 10.1 C 0 km/h
78 03-07-2019 06:25:00 10.1 C 8.32 g/m*3 10.1 C 0 km/h
79 03-07-2019 06:30:00 10.1 C 8.32 g/m*3 10.1 C 0 km/h
80 03-07-2019 06:35:00 10.2 C 8.37 g/m*3 10.2 C 0 km/h
81 03-07-2019 06:40:00 10.2 C 8.37 g/m*3 10.2 C 0 km/h
82 03-07-2019 06:45:00 10.2 C 8.37 g/m*3 10.2 C 0 km/h
83 03-07-2019 06:50:00 10.3 C 8.52 g/m*3 10.3 C 0 km/h
84 03-07-2019 06:55:00 10.3 C 8.52 g/m*3 10.3 C 0 km/h
85 03-07-2019 07:00:00 10.4 C 8.58 g/m*3 10.4 C 0 km/h
86 03-07-2019 07:05:00 10.4 C 8.58 g/m*3 10.4 C 0 km/h
87 03-07-2019 07:10:00 10.6 C 8.69 g/m*3 10.6 C 0 km/h
88 03-07-2019 07:15:00 10.7 C 8.74 g/m*3 10.7 C 0 km/h
89 03-07-2019 07:20:00 10.7 C 8.74 g/m*3 10.7 C 0 km/h
90 03-07-2019 07:25:00 10.8 C 8.8 g/m*3 10.8 C 0 km/h
91 03-07-2019 07:30:00 10.9 C 8.85 g/m*3 10.9 C 0 km/h
92 03-07-2019 07:35:00 11.1 C 8.96 g/m*3 11.1 C 0 km/h
93 03-07-2019 07:40:00 11.2 C 8.92 g/m*3 11.2 C 0 km/h
94 03-07-2019 07:45:00 11.3 C 8.98 g/m*3 11.3 C 0 km/h
95 03-07-2019 07:50:00 11.4 C 9.03 g/m*3 11.4 C 0 km/h
96 03-07-2019 07:55:00 11.5 C 9.09 g/m*3 11.5 C 0 km/h
97 03-07-2019 08:00:00 11.6 C 9.15 g/m*3 11.6 C 0 km/h
98 03-07-2019 08:05:00 11.7 C 9.2 g/m*3 11.7 C 0 km/h
99 03-07-2019 08:10:00 11.9 C 9.21 g/m*3 11.9 C 0 km/h
100 03-07-2019 08:15:00 12 C 9.27 g/m*3 12 C 0 km/h
Sensor: Nr:Datum:Temp:Abs-Feuchte:Windchill:Wind:
Aussen-T/F 101 03-07-2019 08:20:00 12.1 C 9.33 g/m*3 12.1 C 0 km/h
102 03-07-2019 08:25:00 12.2 C 9.39 g/m*3 12.2 C 0 km/h
103 03-07-2019 08:30:00 12.3 C 9.34 g/m*3 12.3 C 0 km/h
104 03-07-2019 08:35:00 12.5 C 9.46 g/m*3 12.5 C 0 km/h
105 03-07-2019 08:40:00 12.7 C 9.57 g/m*3 12.7 C 0 km/h
106 03-07-2019 08:45:00 12.8 C 9.52 g/m*3 12.8 C 0 km/h
107 03-07-2019 08:50:00 12.9 C 9.47 g/m*3 12.9 C 0 km/h
108 03-07-2019 08:55:00 13.1 C 9.47 g/m*3 13.1 C 0 km/h
109 03-07-2019 09:00:00 13.3 C 9.7 g/m*3 13.3 C 0 km/h
110 03-07-2019 09:05:00 13.4 C 9.53 g/m*3 13.4 C 1.6 km/h
111 03-07-2019 09:10:00 13.7 C 9.47 g/m*3 13.7 C 1.6 km/h
112 03-07-2019 09:15:00 13.9 C 9.59 g/m*3 13.9 C 0 km/h
113 03-07-2019 09:20:00 14.1 C 9.71 g/m*3 14.1 C 0 km/h
114 03-07-2019 09:25:00 14.3 C 9.46 g/m*3 14.3 C 0 km/h
115 03-07-2019 09:30:00 14.5 C 9.45 g/m*3 14.5 C 0 km/h
116 03-07-2019 09:35:00 14.8 C 9.63 g/m*3 14.8 C 1.6 km/h
117 03-07-2019 09:40:00 15 C 9.49 g/m*3 15 C 0 km/h
118 03-07-2019 09:45:00 15.3 C 9.66 g/m*3 15.3 C 1.6 km/h
119 03-07-2019 09:50:00 15.6 C 9.44 g/m*3 15.6 C 1.6 km/h
120 03-07-2019 09:55:00 15.8 C 9.42 g/m*3 15.8 C 1.6 km/h
121 03-07-2019 10:00:00 16.1 C 9.46 g/m*3 16.1 C 1.6 km/h
122 03-07-2019 10:05:00 16.4 C 9.49 g/m*3 16.4 C 3.2 km/h
123 03-07-2019 10:10:00 16.7 C 9.38 g/m*3 16.7 C 1.6 km/h
124 03-07-2019 10:15:00 17 C 9.55 g/m*3 17 C 3.2 km/h
125 03-07-2019 10:20:00 17.4 C 9.34 g/m*3 17.4 C 4.8 km/h
Sensor: Nr:Datum:Temp:Abs-Feuchte:Windchill:Wind:
Aussen-T/F 126 03-07-2019 10:25:00 17.8 C 9.56 g/m*3 17.8 C 4.8 km/h
127 03-07-2019 10:30:00 18.3 C 9.38 g/m*3 18.3 C 4.8 km/h
128 03-07-2019 10:35:00 18.7 C 9.13 g/m*3 18.7 C 4.8 km/h
129 03-07-2019 10:40:00 19 C 9.13 g/m*3 19 C 6.4 km/h
130 03-07-2019 10:45:00 19.3 C 9.45 g/m*3 19.3 C 3.2 km/h
131 03-07-2019 10:50:00 19.7 C 9 g/m*3 19.7 C 3.2 km/h
132 03-07-2019 10:55:00 19.8 C 9.05 g/m*3 19.8 C 4.8 km/h
133 03-07-2019 11:00:00 19.7 C 9.17 g/m*3 19.7 C 9.7 km/h
134 03-07-2019 11:05:00 19.7 C 8.66 g/m*3 19.7 C 11.3 km/h
135 03-07-2019 11:10:00 19.7 C 8.83 g/m*3 19.7 C 6.4 km/h
136 03-07-2019 11:15:00 19.7 C 9 g/m*3 19.7 C 8.1 km/h
137 03-07-2019 11:20:00 19.7 C 8.66 g/m*3 19.7 C 12.9 km/h
138 03-07-2019 11:25:00 19.8 C 8.54 g/m*3 19.8 C 16.1 km/h
139 03-07-2019 11:30:00 19.9 C 8.76 g/m*3 19.9 C 6.4 km/h
140 03-07-2019 11:35:00 20.1 C 8.87 g/m*3 20.1 C 4.8 km/h
141 03-07-2019 11:40:00 20.2 C 8.74 g/m*3 20.2 C 4.8 km/h
142 03-07-2019 11:45:00 20.2 C 8.57 g/m*3 20.2 C 9.7 km/h
143 03-07-2019 11:50:00 20.3 C 8.62 g/m*3 20.3 C 11.3 km/h
144 03-07-2019 11:55:00 20.4 C 8.67 g/m*3 20.4 C 11.3 km/h
145 03-07-2019 12:00:00 20.4 C 8.85 g/m*3 20.4 C 11.3 km/h
146 03-07-2019 12:05:00 20.3 C 8.79 g/m*3 20.3 C 4.8 km/h
147 03-07-2019 12:10:00 20.3 C 8.62 g/m*3 20.3 C 11.3 km/h
148 03-07-2019 12:15:00 20.3 C 8.79 g/m*3 20.3 C 11.3 km/h
149 03-07-2019 12:20:00 20.5 C 8.9 g/m*3 20.5 C 12.9 km/h
150 03-07-2019 12:25:00 20.7 C 8.82 g/m*3 20.7 C 8.1 km/h
Sensor: Nr:Datum:Temp:Abs-Feuchte:Windchill:Wind:
Aussen-T/F 151 03-07-2019 12:30:00 20.8 C 8.87 g/m*3 20.8 C 8.1 km/h
152 03-07-2019 12:35:00 20.9 C 8.92 g/m*3 20.9 C 6.4 km/h
153 03-07-2019 12:40:00 21.1 C 8.84 g/m*3 21.1 C 8.1 km/h
154 03-07-2019 12:45:00 21.2 C 8.71 g/m*3 21.2 C 9.7 km/h
155 03-07-2019 12:50:00 21.3 C 8.76 g/m*3 21.3 C 8.1 km/h
156 03-07-2019 12:55:00 21.3 C 8.76 g/m*3 21.3 C 14.5 km/h
157 03-07-2019 13:00:00 21.1 C 8.66 g/m*3 21.1 C 11.3 km/h
158 03-07-2019 13:05:00 21.1 C 9.03 g/m*3 21.1 C 11.3 km/h
159 03-07-2019 13:10:00 21.3 C 8.76 g/m*3 21.3 C 14.5 km/h
160 03-07-2019 13:15:00 21.2 C 8.71 g/m*3 21.2 C 12.9 km/h
161 03-07-2019 13:20:00 21.1 C 8.66 g/m*3 21.1 C 1.6 km/h
162 03-07-2019 13:25:00 21.1 C 8.84 g/m*3 21.1 C 8.1 km/h
163 03-07-2019 13:30:00 21.4 C 8.44 g/m*3 21.4 C 11.3 km/h
164 03-07-2019 13:35:00 21.7 C 8.77 g/m*3 21.7 C 12.9 km/h
165 03-07-2019 13:40:00 21.7 C 8.77 g/m*3 21.7 C 14.5 km/h
166 03-07-2019 13:45:00 21.6 C 8.72 g/m*3 21.6 C 11.3 km/h
167 03-07-2019 13:50:00 21.7 C 8.77 g/m*3 21.7 C 16.1 km/h
168 03-07-2019 13:55:00 21.8 C 8.83 g/m*3 21.8 C 14.5 km/h
169 03-07-2019 14:00:00 21.8 C 9.21 g/m*3 21.8 C 9.7 km/h
170 03-07-2019 14:05:00 21.9 C 8.88 g/m*3 21.9 C 12.9 km/h
171 03-07-2019 14:10:00 21.8 C 8.83 g/m*3 21.8 C 11.3 km/h
172 03-07-2019 14:15:00 22 C 8.93 g/m*3 22 C 9.7 km/h
173 03-07-2019 14:20:00 22.2 C 8.83 g/m*3 22.2 C 12.9 km/h
174 03-07-2019 14:25:00 22.1 C 8.98 g/m*3 22.1 C 11.3 km/h
175 03-07-2019 14:30:00 22 C 8.93 g/m*3 22 C 14.5 km/h
Sensor: Nr:Datum:Temp:Abs-Feuchte:Windchill:Wind:
Aussen-T/F 176 03-07-2019 14:35:00 21.9 C 8.88 g/m*3 21.9 C 14.5 km/h
177 03-07-2019 14:40:00 21.9 C 8.88 g/m*3 21.9 C 8.1 km/h
178 03-07-2019 14:45:00 22 C 9.12 g/m*3 22 C 11.3 km/h
179 03-07-2019 14:50:00 22.1 C 9.17 g/m*3 22.1 C 16.1 km/h
180 03-07-2019 14:55:00 22 C 9.12 g/m*3 22 C 11.3 km/h
181 03-07-2019 15:00:00 22.1 C 8.98 g/m*3 22.1 C 14.5 km/h
182 03-07-2019 15:05:00 22.2 C 9.23 g/m*3 22.2 C 11.3 km/h
183 03-07-2019 15:10:00 22.3 C 8.89 g/m*3 22.3 C 6.4 km/h
184 03-07-2019 15:15:00 22.4 C 9.14 g/m*3 22.4 C 9.7 km/h
185 03-07-2019 15:20:00 22.6 C 8.84 g/m*3 22.6 C 11.3 km/h
186 03-07-2019 15:25:00 22.4 C 8.94 g/m*3 22.4 C 8.1 km/h
187 03-07-2019 15:30:00 22.4 C 9.14 g/m*3 22.4 C 9.7 km/h
188 03-07-2019 15:35:00 22.4 C 9.14 g/m*3 22.4 C 11.3 km/h
189 03-07-2019 15:40:00 22.5 C 9.19 g/m*3 22.5 C 11.3 km/h
190 03-07-2019 15:45:00 22.9 C 8.99 g/m*3 22.9 C 9.7 km/h
191 03-07-2019 15:50:00 23.5 C 9.52 g/m*3 23.5 C 14.5 km/h
192 03-07-2019 15:55:00 23.8 C 9.03 g/m*3 23.8 C 12.9 km/h
193 03-07-2019 16:00:00 23.9 C 8.87 g/m*3 23.9 C 17.7 km/h
194 03-07-2019 16:05:00 23.9 C 9.09 g/m*3 23.9 C 9.7 km/h
195 03-07-2019 16:10:00 24.4 C 9.35 g/m*3 24.4 C 8.1 km/h
196 03-07-2019 16:15:00 24.5 C 8.95 g/m*3 24.5 C 11.3 km/h
197 03-07-2019 16:20:00 24.7 C 8.83 g/m*3 24.7 C 11.3 km/h
198 03-07-2019 16:25:00 24.6 C 9 g/m*3 24.6 C 9.7 km/h
199 03-07-2019 16:30:00 24.7 C 9.05 g/m*3 24.7 C 11.3 km/h
200 03-07-2019 16:35:00 24.5 C 8.95 g/m*3 24.5 C 12.9 km/h
Sensor: Nr:Datum:Temp:Abs-Feuchte:Windchill:Wind:
Aussen-T/F 201 03-07-2019 16:40:00 24.5 C 8.73 g/m*3 24.5 C 9.7 km/h
202 03-07-2019 16:45:00 24.4 C 8.68 g/m*3 24.4 C 11.3 km/h
203 03-07-2019 16:50:00 24.6 C 8.78 g/m*3 24.6 C 9.7 km/h
204 03-07-2019 16:55:00 24.6 C 8.55 g/m*3 24.6 C 14.5 km/h
205 03-07-2019 17:00:00 24.5 C 8.73 g/m*3 24.5 C 12.9 km/h
206 03-07-2019 17:05:00 24.4 C 8.68 g/m*3 24.4 C 12.9 km/h
207 03-07-2019 17:10:00 24.6 C 8.78 g/m*3 24.6 C 14.5 km/h
208 03-07-2019 17:15:00 24.7 C 8.6 g/m*3 24.7 C 14.5 km/h
209 03-07-2019 17:20:00 24.8 C 8.65 g/m*3 24.8 C 12.9 km/h
210 03-07-2019 17:25:00 24.8 C 8.42 g/m*3 24.8 C 14.5 km/h
211 03-07-2019 17:30:00 24.4 C 8.46 g/m*3 24.4 C 12.9 km/h
212 03-07-2019 17:35:00 24.5 C 8.5 g/m*3 24.5 C 14.5 km/h
213 03-07-2019 17:40:00 24.7 C 8.37 g/m*3 24.7 C 11.3 km/h
214 03-07-2019 17:45:00 24.6 C 8.33 g/m*3 24.6 C 11.3 km/h
215 03-07-2019 17:50:00 24.4 C 8.46 g/m*3 24.4 C 12.9 km/h
216 03-07-2019 17:55:00 24.4 C 8.68 g/m*3 24.4 C 16.1 km/h
217 03-07-2019 18:00:00 24.7 C 8.37 g/m*3 24.7 C 9.7 km/h
218 03-07-2019 18:05:00 24.9 C 8.47 g/m*3 24.9 C 9.7 km/h
219 03-07-2019 18:10:00 25 C 8.52 g/m*3 25 C 12.9 km/h
220 03-07-2019 18:15:00 25.1 C 8.57 g/m*3 25.1 C 9.7 km/h
221 03-07-2019 18:20:00 24.8 C 8.42 g/m*3 24.8 C 20.9 km/h
222 03-07-2019 18:25:00 24.6 C 8.55 g/m*3 24.6 C 14.5 km/h
223 03-07-2019 18:30:00 24.6 C 8.55 g/m*3 24.6 C 19.3 km/h
224 03-07-2019 18:35:00 24.6 C 8.55 g/m*3 24.6 C 11.3 km/h
225 03-07-2019 18:40:00 24.5 C 8.28 g/m*3 24.5 C 16.1 km/h
Sensor: Nr:Datum:Temp:Abs-Feuchte:Windchill:Wind:
Aussen-T/F 226 03-07-2019 18:45:00 24.5 C 8.73 g/m*3 24.5 C 9.7 km/h
227 03-07-2019 18:50:00 24.6 C 8.55 g/m*3 24.6 C 11.3 km/h
228 03-07-2019 18:55:00 24.6 C 8.33 g/m*3 24.6 C 14.5 km/h
229 03-07-2019 19:00:00 24.3 C 8.19 g/m*3 24.3 C 14.5 km/h
230 03-07-2019 19:05:00 24.3 C 8.41 g/m*3 24.3 C 14.5 km/h
231 03-07-2019 19:10:00 24.3 C 8.41 g/m*3 24.3 C 12.9 km/h
232 03-07-2019 19:15:00 24.3 C 8.41 g/m*3 24.3 C 12.9 km/h
233 03-07-2019 19:20:00 24.2 C 8.36 g/m*3 24.2 C 11.3 km/h
234 03-07-2019 19:25:00 23.9 C 8.22 g/m*3 23.9 C 11.3 km/h
235 03-07-2019 19:30:00 23.8 C 8.39 g/m*3 23.8 C 16.1 km/h
236 03-07-2019 19:35:00 23.6 C 8.29 g/m*3 23.6 C 14.5 km/h
237 03-07-2019 19:40:00 23.3 C 8.36 g/m*3 23.3 C 17.7 km/h
238 03-07-2019 19:45:00 23.2 C 8.32 g/m*3 23.2 C 12.9 km/h
239 03-07-2019 19:50:00 23.2 C 8.52 g/m*3 23.2 C 11.3 km/h
240 03-07-2019 19:55:00 23.1 C 8.27 g/m*3 23.1 C 14.5 km/h
241 03-07-2019 20:00:00 22.9 C 8.38 g/m*3 22.9 C 12.9 km/h
242 03-07-2019 20:05:00 22.8 C 8.33 g/m*3 22.8 C 9.7 km/h
243 03-07-2019 20:10:00 22.7 C 8.28 g/m*3 22.7 C 16.1 km/h
244 03-07-2019 20:15:00 22.6 C 8.44 g/m*3 22.6 C 9.7 km/h
245 03-07-2019 20:20:00 22.6 C 8.24 g/m*3 22.6 C 9.7 km/h
246 03-07-2019 20:25:00 22.4 C 8.14 g/m*3 22.4 C 14.5 km/h
247 03-07-2019 20:30:00 22.2 C 8.25 g/m*3 22.2 C 8.1 km/h
248 03-07-2019 20:35:00 22.2 C 8.44 g/m*3 22.2 C 9.7 km/h
249 03-07-2019 20:40:00 22.2 C 8.44 g/m*3 22.2 C 8.1 km/h
250 03-07-2019 20:45:00 22.1 C 8.2 g/m*3 22.1 C 8.1 km/h
Sensor: Nr:Datum:Temp:Abs-Feuchte:Windchill:Wind:
Aussen-T/F 251 03-07-2019 20:50:00 21.9 C 8.3 g/m*3 21.9 C 9.7 km/h
252 03-07-2019 20:55:00 21.7 C 8.2 g/m*3 21.7 C 9.7 km/h
253 03-07-2019 21:00:00 21.4 C 8.06 g/m*3 21.4 C 8.1 km/h
254 03-07-2019 21:05:00 21.2 C 8.15 g/m*3 21.2 C 9.7 km/h
255 03-07-2019 21:10:00 21 C 8.24 g/m*3 21 C 8.1 km/h
256 03-07-2019 21:15:00 20.8 C 8.15 g/m*3 20.8 C 8.1 km/h
257 03-07-2019 21:20:00 20.6 C 8.23 g/m*3 20.6 C 8.1 km/h
258 03-07-2019 21:25:00 20.4 C 8.14 g/m*3 20.4 C 8.1 km/h
259 03-07-2019 21:30:00 20.3 C 8.09 g/m*3 20.3 C 6.4 km/h
260 03-07-2019 21:35:00 20.2 C 8.39 g/m*3 20.2 C 1.6 km/h
261 03-07-2019 21:40:00 20.1 C 8.17 g/m*3 20.1 C 4.8 km/h
262 03-07-2019 21:45:00 19.8 C 8.2 g/m*3 19.8 C 6.4 km/h
263 03-07-2019 21:50:00 19.7 C 8.32 g/m*3 19.7 C 1.6 km/h
264 03-07-2019 21:55:00 19.4 C 8.34 g/m*3 19.4 C 0 km/h
265 03-07-2019 22:00:00 19.1 C 8.2 g/m*3 19.1 C 1.6 km/h
266 03-07-2019 22:05:00 18.7 C 8.33 g/m*3 18.7 C 1.6 km/h
267 03-07-2019 22:10:00 18.3 C 8.13 g/m*3 18.3 C 1.6 km/h
268 03-07-2019 22:15:00 18 C 8.45 g/m*3 18 C 0 km/h
269 03-07-2019 22:20:00 17.7 C 8.15 g/m*3 17.7 C 1.6 km/h
270 03-07-2019 22:25:00 17.4 C 8.15 g/m*3 17.4 C 1.6 km/h
271 03-07-2019 22:30:00 17.3 C 8.25 g/m*3 17.3 C 1.6 km/h
272 03-07-2019 22:35:00 17.1 C 8.15 g/m*3 17.1 C 1.6 km/h
273 03-07-2019 22:40:00 16.9 C 8.2 g/m*3 16.9 C 1.6 km/h
274 03-07-2019 22:45:00 16.8 C 8.15 g/m*3 16.8 C 1.6 km/h
275 03-07-2019 22:50:00 16.7 C 8.24 g/m*3 16.7 C 3.2 km/h
Sensor: Nr:Datum:Temp:Abs-Feuchte:Windchill:Wind:
Aussen-T/F 276 03-07-2019 22:55:00 16.5 C 8.28 g/m*3 16.5 C 0 km/h
277 03-07-2019 23:00:00 16.3 C 8.19 g/m*3 16.3 C 0 km/h
278 03-07-2019 23:05:00 16.1 C 8.22 g/m*3 16.1 C 0 km/h
279 03-07-2019 23:10:00 15.9 C 8.13 g/m*3 15.9 C 0 km/h
280 03-07-2019 23:15:00 15.7 C 8.16 g/m*3 15.7 C 0 km/h
281 03-07-2019 23:20:00 15.6 C 8.11 g/m*3 15.6 C 1.6 km/h
282 03-07-2019 23:25:00 15.5 C 8.2 g/m*3 15.5 C 0 km/h
283 03-07-2019 23:30:00 15.4 C 8.15 g/m*3 15.4 C 0 km/h
284 03-07-2019 23:35:00 15.3 C 8.1 g/m*3 15.3 C 0 km/h
285 03-07-2019 23:40:00 15.1 C 8.13 g/m*3 15.1 C 0 km/h
286 03-07-2019 23:45:00 15 C 8.21 g/m*3 15 C 0 km/h
287 03-07-2019 23:50:00 14.9 C 8.16 g/m*3 14.9 C 0 km/h
288 03-07-2019 23:55:00 14.8 C 8.11 g/m*3 14.8 C 0 km/h
289 04-07-2019 00:00:00 14.7 C 8.18 g/m*3 14.7 C 0 km/h
290 04-07-2019 00:05:00 14.6 C 8.13 g/m*3 14.6 C 0 km/h
291 04-07-2019 00:10:00 14.5 C 8.08 g/m*3 14.5 C 0 km/h
292 04-07-2019 00:15:00 14.3 C 7.99 g/m*3 14.3 C 1.6 km/h
293 04-07-2019 00:20:00 14.3 C 7.99 g/m*3 14.3 C 1.6 km/h
294 04-07-2019 00:25:00 14.2 C 8.06 g/m*3 14.2 C 0 km/h
295 04-07-2019 00:30:00 14.1 C 8.01 g/m*3 14.1 C 0 km/h
296 04-07-2019 00:35:00 14.1 C 8.01 g/m*3 14.1 C 0 km/h
297 04-07-2019 00:40:00 14 C 8.08 g/m*3 14 C 0 km/h
298 04-07-2019 00:45:00 13.9 C 8.03 g/m*3 13.9 C 0 km/h
299 04-07-2019 00:50:00 13.9 C 8.03 g/m*3 13.9 C 0 km/h
300 04-07-2019 00:55:00 13.8 C 7.98 g/m*3 13.8 C 0 km/h
Sensor: Nr:Datum:Temp:Abs-Feuchte:Windchill:Wind:
Aussen-T/F 301 04-07-2019 01:00:00 13.8 C 7.98 g/m*3 13.8 C 1.6 km/h
302 04-07-2019 01:05:00 13.8 C 7.98 g/m*3 13.8 C 0 km/h
303 04-07-2019 01:10:00 13.7 C 7.93 g/m*3 13.7 C 0 km/h
304 04-07-2019 01:15:00 13.7 C 8.05 g/m*3 13.7 C 0 km/h
305 04-07-2019 01:20:00 13.6 C 8 g/m*3 13.6 C 0 km/h
306 04-07-2019 01:25:00 13.5 C 7.95 g/m*3 13.5 C 0 km/h
307 04-07-2019 01:30:00 13.4 C 7.9 g/m*3 13.4 C 0 km/h
308 04-07-2019 01:35:00 13.3 C 7.86 g/m*3 13.3 C 0 km/h
309 04-07-2019 01:40:00 13.3 C 7.97 g/m*3 13.3 C 0 km/h
310 04-07-2019 01:45:00 13.3 C 7.86 g/m*3 13.3 C 0 km/h
311 04-07-2019 01:50:00 13.2 C 7.92 g/m*3 13.2 C 0 km/h
312 04-07-2019 01:55:00 13.2 C 8.04 g/m*3 13.2 C 0 km/h
313 04-07-2019 02:00:00 13.1 C 7.99 g/m*3 13.1 C 0 km/h
314 04-07-2019 02:05:00 13.1 C 7.99 g/m*3 13.1 C 0 km/h
315 04-07-2019 02:10:00 13 C 7.94 g/m*3 13 C 0 km/h
316 04-07-2019 02:15:00 12.9 C 7.89 g/m*3 12.9 C 0 km/h
317 04-07-2019 02:20:00 12.8 C 7.95 g/m*3 12.8 C 0 km/h
318 04-07-2019 02:25:00 12.8 C 7.95 g/m*3 12.8 C 0 km/h
319 04-07-2019 02:30:00 12.6 C 7.97 g/m*3 12.6 C 0 km/h
320 04-07-2019 02:35:00 12.4 C 7.87 g/m*3 12.4 C 0 km/h
321 04-07-2019 02:40:00 12.3 C 7.93 g/m*3 12.3 C 0 km/h
322 04-07-2019 02:45:00 12.3 C 7.93 g/m*3 12.3 C 0 km/h
323 04-07-2019 02:50:00 12.2 C 7.99 g/m*3 12.2 C 0 km/h
324 04-07-2019 02:55:00 12 C 7.89 g/m*3 12 C 0 km/h
325 04-07-2019 03:00:00 11.9 C 7.84 g/m*3 11.9 C 0 km/h
Sensor: Nr:Datum:Temp:Abs-Feuchte:Windchill:Wind:
Aussen-T/F 326 04-07-2019 03:05:00 11.7 C 7.84 g/m*3 11.7 C 0 km/h
327 04-07-2019 03:10:00 11.6 C 7.9 g/m*3 11.6 C 0 km/h
328 04-07-2019 03:15:00 11.4 C 7.8 g/m*3 11.4 C 0 km/h
329 04-07-2019 03:20:00 11.3 C 7.85 g/m*3 11.3 C 0 km/h
330 04-07-2019 03:25:00 11.2 C 7.8 g/m*3 11.2 C 0 km/h
331 04-07-2019 03:30:00 11.1 C 7.86 g/m*3 11.1 C 0 km/h
332 04-07-2019 03:35:00 11 C 7.81 g/m*3 11 C 0 km/h
333 04-07-2019 03:40:00 11 C 7.81 g/m*3 11 C 0 km/h
334 04-07-2019 03:45:00 10.9 C 7.86 g/m*3 10.9 C 0 km/h
335 04-07-2019 03:50:00 10.9 C 7.86 g/m*3 10.9 C 0 km/h
336 04-07-2019 03:55:00 10.9 C 7.86 g/m*3 10.9 C 0 km/h
337 04-07-2019 04:00:00 10.9 C 7.86 g/m*3 10.9 C 0 km/h
338 04-07-2019 04:05:00 10.9 C 7.86 g/m*3 10.9 C 0 km/h
339 04-07-2019 04:10:00 10.9 C 7.86 g/m*3 10.9 C 0 km/h
340 04-07-2019 04:15:00 10.9 C 7.86 g/m*3 10.9 C 0 km/h
341 04-07-2019 04:20:00 10.8 C 7.81 g/m*3 10.8 C 0 km/h
342 04-07-2019 04:25:00 10.8 C 7.91 g/m*3 10.8 C 0 km/h
343 04-07-2019 04:30:00 10.8 C 7.91 g/m*3 10.8 C 0 km/h
344 04-07-2019 04:35:00 10.7 C 7.86 g/m*3 10.7 C 0 km/h
345 04-07-2019 04:40:00 10.7 C 7.86 g/m*3 10.7 C 0 km/h
346 04-07-2019 04:45:00 10.7 C 7.86 g/m*3 10.7 C 0 km/h
347 04-07-2019 04:50:00 10.7 C 7.86 g/m*3 10.7 C 0 km/h
348 04-07-2019 04:55:00 10.6 C 7.91 g/m*3 10.6 C 0 km/h
349 04-07-2019 05:00:00 10.6 C 7.91 g/m*3 10.6 C 0 km/h
350 04-07-2019 05:05:00 10.6 C 7.91 g/m*3 10.6 C 0 km/h
Sensor: Nr:Datum:Temp:Abs-Feuchte:Windchill:Wind:
Aussen-T/F 351 04-07-2019 05:10:00 10.5 C 7.86 g/m*3 10.5 C 0 km/h
352 04-07-2019 05:15:00 10.5 C 7.95 g/m*3 10.5 C 0 km/h
353 04-07-2019 05:20:00 10.6 C 8 g/m*3 10.6 C 0 km/h
354 04-07-2019 05:25:00 10.6 C 8 g/m*3 10.6 C 0 km/h
355 04-07-2019 05:30:00 10.6 C 8 g/m*3 10.6 C 0 km/h
356 04-07-2019 05:35:00 10.5 C 7.95 g/m*3 10.5 C 0 km/h
357 04-07-2019 05:40:00 10.5 C 7.95 g/m*3 10.5 C 0 km/h
358 04-07-2019 05:45:00 10.4 C 7.9 g/m*3 10.4 C 0 km/h
359 04-07-2019 05:50:00 10.4 C 7.9 g/m*3 10.4 C 0 km/h
360 04-07-2019 05:55:00 10.4 C 7.9 g/m*3 10.4 C 0 km/h
361 04-07-2019 06:00:00 10.4 C 7.9 g/m*3 10.4 C 0 km/h
362 04-07-2019 06:05:00 10.3 C 7.95 g/m*3 10.3 C 0 km/h
363 04-07-2019 06:10:00 10.3 C 7.95 g/m*3 10.3 C 0 km/h
364 04-07-2019 06:15:00 10.3 C 7.95 g/m*3 10.3 C 0 km/h
365 04-07-2019 06:20:00 10.3 C 7.95 g/m*3 10.3 C 0 km/h
366 04-07-2019 06:25:00 10.3 C 7.95 g/m*3 10.3 C 0 km/h
367 04-07-2019 06:30:00 10.2 C 7.99 g/m*3 10.2 C 0 km/h
368 04-07-2019 06:35:00 10.2 C 7.99 g/m*3 10.2 C 0 km/h
369 04-07-2019 06:40:00 10.2 C 8.09 g/m*3 10.2 C 0 km/h
370 04-07-2019 06:45:00 10.3 C 8.14 g/m*3 10.3 C 0 km/h
371 04-07-2019 06:50:00 10.3 C 8.14 g/m*3 10.3 C 0 km/h
372 04-07-2019 06:55:00 10.3 C 8.14 g/m*3 10.3 C 0 km/h
373 04-07-2019 07:00:00 10.3 C 8.24 g/m*3 10.3 C 0 km/h
374 04-07-2019 07:05:00 10.3 C 8.24 g/m*3 10.3 C 0 km/h
375 04-07-2019 07:10:00 10.3 C 8.24 g/m*3 10.3 C 0 km/h
Sensor: Nr:Datum:Temp:Abs-Feuchte:Windchill:Wind:
Aussen-T/F 376 04-07-2019 07:15:00 10.3 C 8.24 g/m*3 10.3 C 0 km/h
377 04-07-2019 07:20:00 10.4 C 8.29 g/m*3 10.4 C 0 km/h
378 04-07-2019 07:25:00 10.4 C 8.29 g/m*3 10.4 C 0 km/h
379 04-07-2019 07:30:00 10.6 C 8.39 g/m*3 10.6 C 0 km/h
380 04-07-2019 07:35:00 10.6 C 8.39 g/m*3 10.6 C 0 km/h
381 04-07-2019 07:40:00 10.7 C 8.45 g/m*3 10.7 C 0 km/h
382 04-07-2019 07:45:00 10.8 C 8.5 g/m*3 10.8 C 0 km/h
383 04-07-2019 07:50:00 10.9 C 8.55 g/m*3 10.9 C 0 km/h
384 04-07-2019 07:55:00 11 C 8.61 g/m*3 11 C 0 km/h
385 04-07-2019 08:00:00 11.1 C 8.66 g/m*3 11.1 C 0 km/h
386 04-07-2019 08:05:00 11.2 C 8.72 g/m*3 11.2 C 0 km/h
387 04-07-2019 08:10:00 11.3 C 8.77 g/m*3 11.3 C 0 km/h
388 04-07-2019 08:15:00 11.4 C 8.83 g/m*3 11.4 C 0 km/h
389 04-07-2019 08:20:00 11.5 C 8.78 g/m*3 11.5 C 0 km/h
390 04-07-2019 08:25:00 11.6 C 8.83 g/m*3 11.6 C 0 km/h
391 04-07-2019 08:30:00 11.7 C 8.79 g/m*3 11.7 C 0 km/h
392 04-07-2019 08:35:00 11.9 C 8.9 g/m*3 11.9 C 0 km/h
393 04-07-2019 08:40:00 12.1 C 8.9 g/m*3 12.1 C 0 km/h
394 04-07-2019 08:45:00 12.2 C 8.74 g/m*3 12.2 C 0 km/h
395 04-07-2019 08:50:00 12.5 C 8.91 g/m*3 12.5 C 0 km/h
396 04-07-2019 08:55:00 12.7 C 8.91 g/m*3 12.7 C 0 km/h
397 04-07-2019 09:00:00 12.9 C 9.13 g/m*3 12.9 C 0 km/h
398 04-07-2019 09:05:00 13.1 C 9.13 g/m*3 13.1 C 1.6 km/h
399 04-07-2019 09:10:00 13.3 C 9.01 g/m*3 13.3 C 1.6 km/h
400 04-07-2019 09:15:00 13.7 C 9.12 g/m*3 13.7 C 0 km/h
Sensor: Nr:Datum:Temp:Abs-Feuchte:Windchill:Wind:
Aussen-T/F 401 04-07-2019 09:20:00 13.9 C 9.11 g/m*3 13.9 C 0 km/h
402 04-07-2019 09:25:00 14.2 C 9.28 g/m*3 14.2 C 1.6 km/h
403 04-07-2019 09:30:00 14.3 C 8.97 g/m*3 14.3 C 3.2 km/h
404 04-07-2019 09:35:00 14.7 C 8.94 g/m*3 14.7 C 3.2 km/h
405 04-07-2019 09:40:00 15.1 C 8.9 g/m*3 15.1 C 3.2 km/h
406 04-07-2019 09:45:00 15.4 C 8.8 g/m*3 15.4 C 6.4 km/h
407 04-07-2019 09:50:00 15.9 C 8.94 g/m*3 15.9 C 6.4 km/h
408 04-07-2019 09:55:00 16.3 C 8.88 g/m*3 16.3 C 8.1 km/h
409 04-07-2019 10:00:00 16.7 C 8.81 g/m*3 16.7 C 8.1 km/h
410 04-07-2019 10:05:00 16.9 C 8.77 g/m*3 16.9 C 6.4 km/h
411 04-07-2019 10:10:00 17.2 C 8.79 g/m*3 17.2 C 3.2 km/h
412 04-07-2019 10:15:00 17.4 C 8.74 g/m*3 17.4 C 8.1 km/h
413 04-07-2019 10:20:00 17.8 C 8.8 g/m*3 17.8 C 9.7 km/h
414 04-07-2019 10:25:00 18.1 C 8.65 g/m*3 18.1 C 9.7 km/h
415 04-07-2019 10:30:00 18.4 C 8.97 g/m*3 18.4 C 1.6 km/h
416 04-07-2019 10:35:00 18.7 C 8.49 g/m*3 18.7 C 6.4 km/h
417 04-07-2019 10:40:00 18.9 C 8.42 g/m*3 18.9 C 8.1 km/h
418 04-07-2019 10:45:00 19.1 C 8.52 g/m*3 19.1 C 6.4 km/h
419 04-07-2019 10:50:00 19.1 C 8.52 g/m*3 19.1 C 8.1 km/h
420 04-07-2019 10:55:00 19.2 C 8.41 g/m*3 19.2 C 8.1 km/h
421 04-07-2019 11:00:00 19.2 C 8.24 g/m*3 19.2 C 4.8 km/h
422 04-07-2019 11:05:00 19.3 C 8.46 g/m*3 19.3 C 3.2 km/h
423 04-07-2019 11:10:00 19.3 C 8.29 g/m*3 19.3 C 6.4 km/h
424 04-07-2019 11:15:00 19.4 C 8.18 g/m*3 19.4 C 6.4 km/h
425 04-07-2019 11:20:00 19.4 C 8.34 g/m*3 19.4 C 8.1 km/h
Sensor: Nr:Datum:Temp:Abs-Feuchte:Windchill:Wind:
Aussen-T/F 426 04-07-2019 11:25:00 19.6 C 8.27 g/m*3 19.6 C 9.7 km/h
427 04-07-2019 11:30:00 19.7 C 8.32 g/m*3 19.7 C 8.1 km/h
428 04-07-2019 11:35:00 19.8 C 8.2 g/m*3 19.8 C 9.7 km/h
429 04-07-2019 11:40:00 19.8 C 8.37 g/m*3 19.8 C 4.8 km/h
430 04-07-2019 11:45:00 19.8 C 8.2 g/m*3 19.8 C 3.2 km/h
431 04-07-2019 11:50:00 19.8 C 8.2 g/m*3 19.8 C 12.9 km/h
432 04-07-2019 11:55:00 19.9 C 8.25 g/m*3 19.9 C 11.3 km/h
433 04-07-2019 12:00:00 20.2 C 8.22 g/m*3 20.2 C 11.3 km/h
434 04-07-2019 12:05:00 20.3 C 8.44 g/m*3 20.3 C 11.3 km/h
435 04-07-2019 12:10:00 20.3 C 8.09 g/m*3 20.3 C 6.4 km/h
436 04-07-2019 12:15:00 20.1 C 8.17 g/m*3 20.1 C 8.1 km/h
437 04-07-2019 12:20:00 20.2 C 8.04 g/m*3 20.2 C 9.7 km/h
438 04-07-2019 12:25:00 20.2 C 8.04 g/m*3 20.2 C 6.4 km/h
439 04-07-2019 12:30:00 20.3 C 7.74 g/m*3 20.3 C 9.7 km/h
440 04-07-2019 12:35:00 20.4 C 7.96 g/m*3 20.4 C 8.1 km/h
441 04-07-2019 12:40:00 20.5 C 7.83 g/m*3 20.5 C 8.1 km/h
442 04-07-2019 12:45:00 20.7 C 7.92 g/m*3 20.7 C 4.8 km/h
443 04-07-2019 12:50:00 20.8 C 7.97 g/m*3 20.8 C 9.7 km/h
444 04-07-2019 12:55:00 20.8 C 7.79 g/m*3 20.8 C 6.4 km/h
445 04-07-2019 13:00:00 20.9 C 7.65 g/m*3 20.9 C 6.4 km/h
446 04-07-2019 13:05:00 20.9 C 7.83 g/m*3 20.9 C 9.7 km/h
447 04-07-2019 13:10:00 21.2 C 7.78 g/m*3 21.2 C 8.1 km/h
448 04-07-2019 13:15:00 21.4 C 7.69 g/m*3 21.4 C 11.3 km/h
449 04-07-2019 13:20:00 21.6 C 8.16 g/m*3 21.6 C 9.7 km/h
450 04-07-2019 13:25:00 21.8 C 8.25 g/m*3 21.8 C 8.1 km/h
Sensor: Nr:Datum:Temp:Abs-Feuchte:Windchill:Wind:
Aussen-T/F 451 04-07-2019 13:30:00 21.8 C 8.06 g/m*3 21.8 C 6.4 km/h
452 04-07-2019 13:35:00 21.9 C 7.91 g/m*3 21.9 C 11.3 km/h
453 04-07-2019 13:40:00 21.9 C 7.91 g/m*3 21.9 C 8.1 km/h
454 04-07-2019 13:45:00 21.9 C 7.91 g/m*3 21.9 C 8.1 km/h
455 04-07-2019 13:50:00 22.1 C 7.81 g/m*3 22.1 C 6.4 km/h
456 04-07-2019 13:55:00 22.2 C 7.85 g/m*3 22.2 C 8.1 km/h
457 04-07-2019 14:00:00 22.2 C 8.05 g/m*3 22.2 C 8.1 km/h
458 04-07-2019 14:05:00 22.1 C 8 g/m*3 22.1 C 6.4 km/h
459 04-07-2019 14:10:00 22.2 C 8.05 g/m*3 22.2 C 6.4 km/h
460 04-07-2019 14:15:00 22.3 C 8.1 g/m*3 22.3 C 6.4 km/h
461 04-07-2019 14:20:00 22.6 C 7.63 g/m*3 22.6 C 6.4 km/h
462 04-07-2019 14:25:00 22.7 C 7.68 g/m*3 22.7 C 4.8 km/h
463 04-07-2019 14:30:00 22.7 C 7.48 g/m*3 22.7 C 6.4 km/h
464 04-07-2019 14:35:00 22.8 C 7.32 g/m*3 22.8 C 4.8 km/h
465 04-07-2019 14:40:00 22.9 C 7.36 g/m*3 22.9 C 12.9 km/h
466 04-07-2019 14:45:00 23.2 C 7.48 g/m*3 23.2 C 4.8 km/h
467 04-07-2019 14:50:00 23.3 C 7.32 g/m*3 23.3 C 3.2 km/h
468 04-07-2019 14:55:00 23.6 C 7.66 g/m*3 23.6 C 11.3 km/h
469 04-07-2019 15:00:00 23.7 C 7.27 g/m*3 23.7 C 12.9 km/h
470 04-07-2019 15:05:00 23.8 C 7.53 g/m*3 23.8 C 11.3 km/h
471 04-07-2019 15:10:00 23.9 C 7.57 g/m*3 23.9 C 8.1 km/h
472 04-07-2019 15:15:00 24.1 C 7.66 g/m*3 24.1 C 4.8 km/h
473 04-07-2019 15:20:00 24.2 C 7.26 g/m*3 24.2 C 12.9 km/h
474 04-07-2019 15:25:00 24.4 C 8.01 g/m*3 24.4 C 9.7 km/h
475 04-07-2019 15:30:00 24.7 C 7.47 g/m*3 24.7 C 8.1 km/h
Sensor: Nr:Datum:Temp:Abs-Feuchte:Windchill:Wind:
Aussen-T/F 476 04-07-2019 15:35:00 25.1 C 8.1 g/m*3 25.1 C 6.4 km/h
477 04-07-2019 15:40:00 25.6 C 7.86 g/m*3 25.6 C 9.7 km/h
478 04-07-2019 15:45:00 25.7 C 7.18 g/m*3 25.7 C 9.7 km/h
479 04-07-2019 15:50:00 25.5 C 7.81 g/m*3 25.5 C 8.1 km/h
480 04-07-2019 15:55:00 25.7 C 7.42 g/m*3 25.7 C 11.3 km/h
481 04-07-2019 16:00:00 25.9 C 7.75 g/m*3 25.9 C 4.8 km/h
482 04-07-2019 16:05:00 26.2 C 7.88 g/m*3 26.2 C 6.4 km/h
483 04-07-2019 16:10:00 26.7 C 7.85 g/m*3 26.7 C 6.4 km/h
484 04-07-2019 16:15:00 27.1 C 8.28 g/m*3 27.1 C 9.7 km/h
485 04-07-2019 16:20:00 27.3 C 7.85 g/m*3 27.3 C 9.7 km/h
486 04-07-2019 16:25:00 27.1 C 8.02 g/m*3 27.1 C 6.4 km/h
487 04-07-2019 16:30:00 27.1 C 8.02 g/m*3 27.1 C 9.7 km/h
488 04-07-2019 16:35:00 27.1 C 8.02 g/m*3 27.1 C 9.7 km/h
489 04-07-2019 16:40:00 27 C 7.98 g/m*3 27 C 9.7 km/h
490 04-07-2019 16:45:00 26.9 C 8.19 g/m*3 26.9 C 8.1 km/h
491 04-07-2019 16:50:00 26.7 C 8.1 g/m*3 26.7 C 11.3 km/h
492 04-07-2019 16:55:00 26.6 C 8.05 g/m*3 26.6 C 11.3 km/h
493 04-07-2019 17:00:00 26.4 C 8.21 g/m*3 26.4 C 11.3 km/h
494 04-07-2019 17:05:00 26.5 C 8.26 g/m*3 26.5 C 6.4 km/h
495 04-07-2019 17:10:00 26.8 C 8.65 g/m*3 26.8 C 8.1 km/h
496 04-07-2019 17:15:00 27.1 C 8.28 g/m*3 27.1 C 6.4 km/h
497 04-07-2019 17:20:00 27.2 C 8.59 g/m*3 27.2 C 3.2 km/h
498 04-07-2019 17:25:00 27.1 C 8.02 g/m*3 27.1 C 17.7 km/h
499 04-07-2019 17:30:00 26.8 C 8.14 g/m*3 26.8 C 17.7 km/h
500 04-07-2019 17:35:00 26.6 C 8.05 g/m*3 26.6 C 8.1 km/h
Sensor: Nr:Datum:Temp:Abs-Feuchte:Windchill:Wind:
Aussen-T/F 501 04-07-2019 17:40:00 26.8 C 8.14 g/m*3 26.8 C 9.7 km/h
502 04-07-2019 17:45:00 27.2 C 7.81 g/m*3 27.2 C 9.7 km/h
503 04-07-2019 17:50:00 27.1 C 8.02 g/m*3 27.1 C 12.9 km/h
504 04-07-2019 17:55:00 27.2 C 7.81 g/m*3 27.2 C 1.6 km/h
505 04-07-2019 18:00:00 27.3 C 8.11 g/m*3 27.3 C 8.1 km/h
506 04-07-2019 18:05:00 27.4 C 8.16 g/m*3 27.4 C 8.1 km/h
507 04-07-2019 18:10:00 27.5 C 7.94 g/m*3 27.5 C 9.7 km/h
508 04-07-2019 18:15:00 27.6 C 7.98 g/m*3 27.6 C 11.3 km/h
509 04-07-2019 18:20:00 27.5 C 8.2 g/m*3 27.5 C 9.7 km/h
510 04-07-2019 18:25:00 27.3 C 8.11 g/m*3 27.3 C 9.7 km/h
511 04-07-2019 18:30:00 27.4 C 7.89 g/m*3 27.4 C 11.3 km/h
512 04-07-2019 18:35:00 27.3 C 8.11 g/m*3 27.3 C 8.1 km/h
513 04-07-2019 18:40:00 27.2 C 7.81 g/m*3 27.2 C 6.4 km/h
514 04-07-2019 18:45:00 27.2 C 8.07 g/m*3 27.2 C 6.4 km/h
515 04-07-2019 18:50:00 27.2 C 8.33 g/m*3 27.2 C 9.7 km/h
516 04-07-2019 18:55:00 27.3 C 8.11 g/m*3 27.3 C 6.4 km/h
517 04-07-2019 19:00:00 27.6 C 8.25 g/m*3 27.6 C 6.4 km/h
518 04-07-2019 19:05:00 27.6 C 7.98 g/m*3 27.6 C 11.3 km/h
519 04-07-2019 19:10:00 27.4 C 8.16 g/m*3 27.4 C 6.4 km/h
520 04-07-2019 19:15:00 27.4 C 8.16 g/m*3 27.4 C 9.7 km/h
521 04-07-2019 19:20:00 27.3 C 8.11 g/m*3 27.3 C 6.4 km/h
522 04-07-2019 19:25:00 27.2 C 8.07 g/m*3 27.2 C 4.8 km/h
523 04-07-2019 19:30:00 26.9 C 7.93 g/m*3 26.9 C 6.4 km/h
524 04-07-2019 19:35:00 26.6 C 8.31 g/m*3 26.6 C 6.4 km/h
525 04-07-2019 19:40:00 26.5 C 8.01 g/m*3 26.5 C 8.1 km/h
Sensor: Nr:Datum:Temp:Abs-Feuchte:Windchill:Wind:
Aussen-T/F 526 04-07-2019 19:45:00 26.4 C 8.21 g/m*3 26.4 C 6.4 km/h
527 04-07-2019 19:50:00 26.3 C 8.17 g/m*3 26.3 C 6.4 km/h
528 04-07-2019 19:55:00 26.1 C 8.08 g/m*3 26.1 C 9.7 km/h
529 04-07-2019 20:00:00 25.8 C 7.94 g/m*3 25.8 C 8.1 km/h
530 04-07-2019 20:05:00 25.7 C 8.14 g/m*3 25.7 C 6.4 km/h
531 04-07-2019 20:10:00 25.5 C 8.29 g/m*3 25.5 C 4.8 km/h
532 04-07-2019 20:15:00 25.4 C 8 g/m*3 25.4 C 6.4 km/h
533 04-07-2019 20:20:00 25.2 C 8.15 g/m*3 25.2 C 9.7 km/h
534 04-07-2019 20:25:00 25.1 C 8.33 g/m*3 25.1 C 3.2 km/h
535 04-07-2019 20:30:00 24.9 C 8.24 g/m*3 24.9 C 4.8 km/h
536 04-07-2019 20:35:00 24.7 C 8.37 g/m*3 24.7 C 6.4 km/h
537 04-07-2019 20:40:00 24.6 C 8.55 g/m*3 24.6 C 3.2 km/h
538 04-07-2019 20:45:00 24.4 C 8.68 g/m*3 24.4 C 6.4 km/h
539 04-07-2019 20:50:00 24.2 C 8.36 g/m*3 24.2 C 3.2 km/h
540 04-07-2019 20:55:00 23.9 C 8.44 g/m*3 23.9 C 4.8 km/h
541 04-07-2019 21:00:00 23.6 C 8.72 g/m*3 23.6 C 3.2 km/h
542 04-07-2019 21:05:00 23.4 C 8.62 g/m*3 23.4 C 4.8 km/h
543 04-07-2019 21:10:00 23.2 C 9.56 g/m*3 23.2 C 1.6 km/h
544 04-07-2019 21:15:00 22.9 C 9.2 g/m*3 22.9 C 0 km/h
545 04-07-2019 21:20:00 22.4 C 9.14 g/m*3 22.4 C 0 km/h
546 04-07-2019 21:25:00 21.9 C 9.07 g/m*3 21.9 C 0 km/h
547 04-07-2019 21:30:00 21.4 C 9 g/m*3 21.4 C 0 km/h
548 04-07-2019 21:35:00 20.9 C 9.11 g/m*3 20.9 C 0 km/h
549 04-07-2019 21:40:00 20.4 C 8.85 g/m*3 20.4 C 0 km/h
550 04-07-2019 21:45:00 20.1 C 8.87 g/m*3 20.1 C 0 km/h
Sensor: Nr:Datum:Temp:Abs-Feuchte:Windchill:Wind:
Aussen-T/F 551 04-07-2019 21:50:00 19.7 C 8.66 g/m*3 19.7 C 0 km/h
552 04-07-2019 21:55:00 19.4 C 8.84 g/m*3 19.4 C 0 km/h
553 04-07-2019 22:00:00 19.2 C 8.74 g/m*3 19.2 C 0 km/h
554 04-07-2019 22:05:00 19.1 C 8.52 g/m*3 19.1 C 0 km/h
555 04-07-2019 22:10:00 19 C 8.64 g/m*3 19 C 0 km/h
556 04-07-2019 22:15:00 18.9 C 8.42 g/m*3 18.9 C 0 km/h
557 04-07-2019 22:20:00 18.7 C 8.49 g/m*3 18.7 C 0 km/h
558 04-07-2019 22:25:00 18.7 C 8.49 g/m*3 18.7 C 0 km/h
559 04-07-2019 22:30:00 18.5 C 8.39 g/m*3 18.5 C 0 km/h
560 04-07-2019 22:35:00 18.3 C 8.29 g/m*3 18.3 C 1.6 km/h
561 04-07-2019 22:40:00 18.2 C 8.24 g/m*3 18.2 C 0 km/h
562 04-07-2019 22:45:00 18.2 C 8.55 g/m*3 18.2 C 0 km/h
563 04-07-2019 22:50:00 18.1 C 8.5 g/m*3 18.1 C 0 km/h
564 04-07-2019 22:55:00 17.9 C 8.55 g/m*3 17.9 C 0 km/h
565 04-07-2019 23:00:00 17.8 C 8.5 g/m*3 17.8 C 0 km/h
566 04-07-2019 23:05:00 17.7 C 8.3 g/m*3 17.7 C 0 km/h
567 04-07-2019 23:10:00 17.6 C 8.55 g/m*3 17.6 C 0 km/h
568 04-07-2019 23:15:00 17.5 C 8.35 g/m*3 17.5 C 0 km/h
569 04-07-2019 23:20:00 17.3 C 8.25 g/m*3 17.3 C 0 km/h
570 04-07-2019 23:25:00 17.3 C 8.4 g/m*3 17.3 C 1.6 km/h
571 04-07-2019 23:30:00 17.3 C 8.4 g/m*3 17.3 C 0 km/h
572 04-07-2019 23:35:00 17.2 C 8.49 g/m*3 17.2 C 0 km/h
573 04-07-2019 23:40:00 17.2 C 8.49 g/m*3 17.2 C 0 km/h
574 04-07-2019 23:45:00 17.3 C 8.54 g/m*3 17.3 C 0 km/h
575 04-07-2019 23:50:00 17.3 C 8.54 g/m*3 17.3 C 0 km/h
Sensor: Nr:Datum:Temp:Abs-Feuchte:Windchill:Wind:
Aussen-T/F 576 04-07-2019 23:55:00 17.2 C 8.49 g/m*3 17.2 C 0 km/h
577 05-07-2019 00:00:00 17.2 C 8.49 g/m*3 17.2 C 0 km/h
578 05-07-2019 00:05:00 17.1 C 8.59 g/m*3 17.1 C 0 km/h
579 05-07-2019 00:10:00 16.9 C 8.63 g/m*3 16.9 C 0 km/h
580 05-07-2019 00:15:00 16.7 C 8.67 g/m*3 16.7 C 0 km/h
581 05-07-2019 00:20:00 16.5 C 8.57 g/m*3 16.5 C 0 km/h
582 05-07-2019 00:25:00 16.4 C 8.65 g/m*3 16.4 C 0 km/h
583 05-07-2019 00:30:00 16.2 C 8.55 g/m*3 16.2 C 0 km/h
584 05-07-2019 00:35:00 16.1 C 8.5 g/m*3 16.1 C 0 km/h
585 05-07-2019 00:40:00 16.1 C 8.64 g/m*3 16.1 C 1.6 km/h
586 05-07-2019 00:45:00 16 C 8.58 g/m*3 16 C 0 km/h
587 05-07-2019 00:50:00 15.9 C 8.67 g/m*3 15.9 C 0 km/h
588 05-07-2019 00:55:00 15.9 C 8.53 g/m*3 15.9 C 0 km/h
589 05-07-2019 01:00:00 15.8 C 8.62 g/m*3 15.8 C 0 km/h
590 05-07-2019 01:05:00 15.7 C 8.43 g/m*3 15.7 C 0 km/h
591 05-07-2019 01:10:00 15.6 C 8.51 g/m*3 15.6 C 0 km/h
592 05-07-2019 01:15:00 15.4 C 8.54 g/m*3 15.4 C 0 km/h
593 05-07-2019 01:20:00 15.3 C 8.62 g/m*3 15.3 C 0 km/h
594 05-07-2019 01:25:00 15.2 C 8.44 g/m*3 15.2 C 0 km/h
595 05-07-2019 01:30:00 15.1 C 8.51 g/m*3 15.1 C 0 km/h
596 05-07-2019 01:35:00 14.9 C 8.54 g/m*3 14.9 C 0 km/h
597 05-07-2019 01:40:00 14.9 C 8.54 g/m*3 14.9 C 0 km/h
598 05-07-2019 01:45:00 14.8 C 8.49 g/m*3 14.8 C 0 km/h
599 05-07-2019 01:50:00 14.8 C 8.61 g/m*3 14.8 C 0 km/h
600 05-07-2019 01:55:00 14.7 C 8.56 g/m*3 14.7 C 0 km/h
Sensor: Nr:Datum:Temp:Abs-Feuchte:Windchill:Wind:
Aussen-T/F 601 05-07-2019 02:00:00 14.6 C 8.38 g/m*3 14.6 C 0 km/h
602 05-07-2019 02:05:00 14.5 C 8.33 g/m*3 14.5 C 0 km/h
603 05-07-2019 02:10:00 14.4 C 8.41 g/m*3 14.4 C 0 km/h
604 05-07-2019 02:15:00 14.3 C 8.35 g/m*3 14.3 C 0 km/h
605 05-07-2019 02:20:00 14.3 C 8.48 g/m*3 14.3 C 0 km/h
606 05-07-2019 02:25:00 14.2 C 8.43 g/m*3 14.2 C 0 km/h
607 05-07-2019 02:30:00 14.1 C 8.37 g/m*3 14.1 C 0 km/h
608 05-07-2019 02:35:00 14 C 8.32 g/m*3 14 C 0 km/h
609 05-07-2019 02:40:00 13.9 C 8.39 g/m*3 13.9 C 0 km/h
610 05-07-2019 02:45:00 13.8 C 8.46 g/m*3 13.8 C 0 km/h
611 05-07-2019 02:50:00 13.8 C 8.46 g/m*3 13.8 C 0 km/h
612 05-07-2019 02:55:00 13.7 C 8.53 g/m*3 13.7 C 0 km/h
613 05-07-2019 03:00:00 13.7 C 8.41 g/m*3 13.7 C 0 km/h
614 05-07-2019 03:05:00 13.7 C 8.53 g/m*3 13.7 C 0 km/h
615 05-07-2019 03:10:00 13.6 C 8.47 g/m*3 13.6 C 0 km/h
616 05-07-2019 03:15:00 13.6 C 8.47 g/m*3 13.6 C 0 km/h
617 05-07-2019 03:20:00 13.6 C 8.59 g/m*3 13.6 C 0 km/h
618 05-07-2019 03:25:00 13.7 C 8.76 g/m*3 13.7 C 0 km/h
619 05-07-2019 03:30:00 13.7 C 8.76 g/m*3 13.7 C 0 km/h
620 05-07-2019 03:35:00 13.7 C 8.76 g/m*3 13.7 C 0 km/h
621 05-07-2019 03:40:00 13.7 C 8.76 g/m*3 13.7 C 0 km/h
622 05-07-2019 03:45:00 13.8 C 8.82 g/m*3 13.8 C 3.2 km/h
623 05-07-2019 03:50:00 13.8 C 8.94 g/m*3 13.8 C 4.8 km/h
624 05-07-2019 03:55:00 13.9 C 8.87 g/m*3 13.9 C 4.8 km/h
625 05-07-2019 04:00:00 14 C 8.93 g/m*3 14 C 6.4 km/h
Sensor: Nr:Datum:Temp:Abs-Feuchte:Windchill:Wind:
Aussen-T/F 626 05-07-2019 04:05:00 14.1 C 8.98 g/m*3 14.1 C 6.4 km/h
627 05-07-2019 04:10:00 14.1 C 8.98 g/m*3 14.1 C 3.2 km/h
628 05-07-2019 04:15:00 14.1 C 8.98 g/m*3 14.1 C 0 km/h
629 05-07-2019 04:20:00 14.1 C 8.98 g/m*3 14.1 C 4.8 km/h
630 05-07-2019 04:25:00 14.1 C 8.98 g/m*3 14.1 C 3.2 km/h
631 05-07-2019 04:30:00 14.1 C 8.86 g/m*3 14.1 C 1.6 km/h
632 05-07-2019 04:35:00 14.1 C 8.98 g/m*3 14.1 C 4.8 km/h
633 05-07-2019 04:40:00 14.1 C 8.98 g/m*3 14.1 C 1.6 km/h
634 05-07-2019 04:45:00 14.1 C 8.86 g/m*3 14.1 C 0 km/h
635 05-07-2019 04:50:00 14.1 C 8.98 g/m*3 14.1 C 3.2 km/h
636 05-07-2019 04:55:00 14 C 8.93 g/m*3 14 C 0 km/h
637 05-07-2019 05:00:00 13.9 C 8.87 g/m*3 13.9 C 1.6 km/h
638 05-07-2019 05:05:00 13.9 C 8.87 g/m*3 13.9 C 0 km/h
639 05-07-2019 05:10:00 13.8 C 8.82 g/m*3 13.8 C 0 km/h
640 05-07-2019 05:15:00 13.8 C 8.82 g/m*3 13.8 C 0 km/h
641 05-07-2019 05:20:00 13.8 C 8.82 g/m*3 13.8 C 0 km/h
642 05-07-2019 05:25:00 13.7 C 8.76 g/m*3 13.7 C 0 km/h
643 05-07-2019 05:30:00 13.7 C 8.76 g/m*3 13.7 C 0 km/h
644 05-07-2019 05:35:00 13.7 C 8.88 g/m*3 13.7 C 0 km/h
645 05-07-2019 05:40:00 13.7 C 8.88 g/m*3 13.7 C 1.6 km/h
646 05-07-2019 05:45:00 13.7 C 8.88 g/m*3 13.7 C 3.2 km/h
647 05-07-2019 05:50:00 13.7 C 9 g/m*3 13.7 C 1.6 km/h
648 05-07-2019 05:55:00 13.7 C 9 g/m*3 13.7 C 3.2 km/h
649 05-07-2019 06:00:00 13.8 C 9.06 g/m*3 13.8 C 0 km/h
650 05-07-2019 06:05:00 13.8 C 9.06 g/m*3 13.8 C 0 km/h
Sensor: Nr:Datum:Temp:Abs-Feuchte:Windchill:Wind:
Aussen-T/F 651 05-07-2019 06:10:00 13.8 C 9.06 g/m*3 13.8 C 0 km/h
652 05-07-2019 06:15:00 13.8 C 9.06 g/m*3 13.8 C 1.6 km/h
653 05-07-2019 06:20:00 13.9 C 9.11 g/m*3 13.9 C 4.8 km/h
654 05-07-2019 06:25:00 13.9 C 9.23 g/m*3 13.9 C 0 km/h
655 05-07-2019 06:30:00 13.9 C 9.11 g/m*3 13.9 C 0 km/h
656 05-07-2019 06:35:00 14 C 9.29 g/m*3 14 C 0 km/h
657 05-07-2019 06:40:00 14 C 9.29 g/m*3 14 C 4.8 km/h
658 05-07-2019 06:45:00 14.1 C 9.34 g/m*3 14.1 C 3.2 km/h
659 05-07-2019 06:50:00 14.1 C 9.22 g/m*3 14.1 C 1.6 km/h
660 05-07-2019 06:55:00 14.1 C 9.22 g/m*3 14.1 C 0 km/h
661 05-07-2019 07:00:00 14.2 C 9.4 g/m*3 14.2 C 0 km/h
662 05-07-2019 07:05:00 14.2 C 9.4 g/m*3 14.2 C 0 km/h
663 05-07-2019 07:10:00 14.3 C 9.46 g/m*3 14.3 C 0 km/h
664 05-07-2019 07:15:00 14.3 C 9.46 g/m*3 14.3 C 0 km/h
665 05-07-2019 07:20:00 14.3 C 9.21 g/m*3 14.3 C 6.4 km/h
666 05-07-2019 07:25:00 14.4 C 9.27 g/m*3 14.4 C 3.2 km/h
667 05-07-2019 07:30:00 14.6 C 9.39 g/m*3 14.6 C 3.2 km/h
668 05-07-2019 07:35:00 14.7 C 9.32 g/m*3 14.7 C 9.7 km/h
669 05-07-2019 07:40:00 14.8 C 9.5 g/m*3 14.8 C 4.8 km/h
670 05-07-2019 07:45:00 14.9 C 9.56 g/m*3 14.9 C 4.8 km/h
671 05-07-2019 07:50:00 14.9 C 9.43 g/m*3 14.9 C 6.4 km/h
672 05-07-2019 07:55:00 15 C 9.49 g/m*3 15 C 4.8 km/h
673 05-07-2019 08:00:00 15 C 9.49 g/m*3 15 C 8.1 km/h
674 05-07-2019 08:05:00 15.2 C 9.73 g/m*3 15.2 C 8.1 km/h
675 05-07-2019 08:10:00 15.3 C 9.66 g/m*3 15.3 C 6.4 km/h
Sensor: Nr:Datum:Temp:Abs-Feuchte:Windchill:Wind:
Aussen-T/F 676 05-07-2019 08:15:00 15.5 C 9.65 g/m*3 15.5 C 6.4 km/h
677 05-07-2019 08:20:00 15.7 C 9.77 g/m*3 15.7 C 6.4 km/h
678 05-07-2019 08:25:00 15.8 C 9.83 g/m*3 15.8 C 6.4 km/h
679 05-07-2019 08:30:00 15.9 C 9.89 g/m*3 15.9 C 3.2 km/h
680 05-07-2019 08:35:00 16 C 9.95 g/m*3 16 C 3.2 km/h
681 05-07-2019 08:40:00 16.1 C 9.87 g/m*3 16.1 C 3.2 km/h
682 05-07-2019 08:45:00 16.2 C 9.93 g/m*3 16.2 C 4.8 km/h
683 05-07-2019 08:50:00 16.4 C 9.77 g/m*3 16.4 C 6.4 km/h
684 05-07-2019 08:55:00 16.5 C 9.69 g/m*3 16.5 C 4.8 km/h
685 05-07-2019 09:00:00 16.6 C 9.75 g/m*3 16.6 C 3.2 km/h
686 05-07-2019 09:05:00 16.7 C 9.81 g/m*3 16.7 C 4.8 km/h
687 05-07-2019 09:10:00 16.8 C 9.87 g/m*3 16.8 C 3.2 km/h
688 05-07-2019 09:15:00 16.9 C 9.92 g/m*3 16.9 C 3.2 km/h
689 05-07-2019 09:20:00 17.1 C 10.04 g/m*3 17.1 C 1.6 km/h
690 05-07-2019 09:25:00 17.2 C 10.1 g/m*3 17.2 C 1.6 km/h
691 05-07-2019 09:30:00 17.3 C 10.02 g/m*3 17.3 C 4.8 km/h
692 05-07-2019 09:35:00 17.5 C 9.99 g/m*3 17.5 C 1.6 km/h
693 05-07-2019 09:40:00 17.6 C 9.75 g/m*3 17.6 C 3.2 km/h
694 05-07-2019 09:45:00 17.8 C 10.02 g/m*3 17.8 C 4.8 km/h
695 05-07-2019 09:50:00 17.9 C 9.92 g/m*3 17.9 C 1.6 km/h
696 05-07-2019 09:55:00 18.1 C 10.2 g/m*3 18.1 C 3.2 km/h
697 05-07-2019 10:00:00 18.3 C 9.85 g/m*3 18.3 C 1.6 km/h
698 05-07-2019 10:05:00 18.7 C 9.93 g/m*3 18.7 C 3.2 km/h
699 05-07-2019 10:10:00 18.9 C 10.04 g/m*3 18.9 C 3.2 km/h
700 05-07-2019 10:15:00 19.3 C 10.28 g/m*3 19.3 C 3.2 km/h
Sensor: Nr:Datum:Temp:Abs-Feuchte:Windchill:Wind:
Aussen-T/F 701 05-07-2019 10:20:00 19.7 C 10.53 g/m*3 19.7 C 6.4 km/h
702 05-07-2019 10:25:00 20 C 10.54 g/m*3 20 C 4.8 km/h
703 05-07-2019 10:30:00 20.4 C 10.26 g/m*3 20.4 C 4.8 km/h
704 05-07-2019 10:35:00 21 C 10.26 g/m*3 21 C 4.8 km/h
705 05-07-2019 10:40:00 21.4 C 10.31 g/m*3 21.4 C 1.6 km/h
706 05-07-2019 10:45:00 21.7 C 10.49 g/m*3 21.7 C 8.1 km/h
707 05-07-2019 10:50:00 21.7 C 10.3 g/m*3 21.7 C 6.4 km/h
708 05-07-2019 10:55:00 21.6 C 10.24 g/m*3 21.6 C 4.8 km/h
709 05-07-2019 11:00:00 21.6 C 10.24 g/m*3 21.6 C 4.8 km/h
710 05-07-2019 11:05:00 21.6 C 10.24 g/m*3 21.6 C 8.1 km/h
711 05-07-2019 11:10:00 21.7 C 10.49 g/m*3 21.7 C 6.4 km/h
712 05-07-2019 11:15:00 21.8 C 10.36 g/m*3 21.8 C 6.4 km/h
713 05-07-2019 11:20:00 21.7 C 10.3 g/m*3 21.7 C 8.1 km/h
714 05-07-2019 11:25:00 21.8 C 10.17 g/m*3 21.8 C 4.8 km/h
715 05-07-2019 11:30:00 21.9 C 10.03 g/m*3 21.9 C 3.2 km/h
716 05-07-2019 11:35:00 22 C 10.09 g/m*3 22 C 8.1 km/h
717 05-07-2019 11:40:00 22.1 C 10.35 g/m*3 22.1 C 3.2 km/h
718 05-07-2019 11:45:00 22.3 C 10.47 g/m*3 22.3 C 1.6 km/h
719 05-07-2019 11:50:00 22.4 C 10.33 g/m*3 22.4 C 6.4 km/h
720 05-07-2019 11:55:00 22.4 C 10.33 g/m*3 22.4 C 8.1 km/h
721 05-07-2019 12:00:00 22.3 C 10.27 g/m*3 22.3 C 1.6 km/h
722 05-07-2019 12:05:00 22.3 C 10.07 g/m*3 22.3 C 4.8 km/h
723 05-07-2019 12:10:00 22.4 C 10.33 g/m*3 22.4 C 1.6 km/h
724 05-07-2019 12:15:00 22.4 C 10.13 g/m*3 22.4 C 6.4 km/h
725 05-07-2019 12:20:00 22.5 C 10.19 g/m*3 22.5 C 8.1 km/h
Sensor: Nr:Datum:Temp:Abs-Feuchte:Windchill:Wind:
Aussen-T/F 726 05-07-2019 12:25:00 22.6 C 10.25 g/m*3 22.6 C 1.6 km/h
727 05-07-2019 12:30:00 22.7 C 10.51 g/m*3 22.7 C 3.2 km/h
728 05-07-2019 12:35:00 22.9 C 10.22 g/m*3 22.9 C 8.1 km/h
729 05-07-2019 12:40:00 23.1 C 10.13 g/m*3 23.1 C 9.7 km/h
730 05-07-2019 12:45:00 23.4 C 10.09 g/m*3 23.4 C 9.7 km/h
731 05-07-2019 12:50:00 23.7 C 10.48 g/m*3 23.7 C 8.1 km/h
732 05-07-2019 12:55:00 23.8 C 10.11 g/m*3 23.8 C 6.4 km/h
733 05-07-2019 13:00:00 23.8 C 10.33 g/m*3 23.8 C 8.1 km/h
734 05-07-2019 13:05:00 23.9 C 10.17 g/m*3 23.9 C 6.4 km/h
735 05-07-2019 13:10:00 24.1 C 10.06 g/m*3 24.1 C 11.3 km/h
736 05-07-2019 13:15:00 24.2 C 10.12 g/m*3 24.2 C 11.3 km/h
737 05-07-2019 13:20:00 24.3 C 9.96 g/m*3 24.3 C 16.1 km/h
738 05-07-2019 13:25:00 24.4 C 10.01 g/m*3 24.4 C 11.3 km/h
739 05-07-2019 13:30:00 24.4 C 10.01 g/m*3 24.4 C 9.7 km/h
740 05-07-2019 13:35:00 24.6 C 10.35 g/m*3 24.6 C 9.7 km/h
741 05-07-2019 13:40:00 24.7 C 10.19 g/m*3 24.7 C 9.7 km/h
742 05-07-2019 13:45:00 24.7 C 9.96 g/m*3 24.7 C 8.1 km/h
743 05-07-2019 13:50:00 24.7 C 9.96 g/m*3 24.7 C 8.1 km/h
744 05-07-2019 13:55:00 24.8 C 10.02 g/m*3 24.8 C 8.1 km/h
745 05-07-2019 14:00:00 24.8 C 10.02 g/m*3 24.8 C 4.8 km/h
746 05-07-2019 14:05:00 24.8 C 9.79 g/m*3 24.8 C 8.1 km/h
747 05-07-2019 14:10:00 24.9 C 10.07 g/m*3 24.9 C 6.4 km/h
748 05-07-2019 14:15:00 25.1 C 10.42 g/m*3 25.1 C 4.8 km/h
749 05-07-2019 14:20:00 25.2 C 10.01 g/m*3 25.2 C 8.1 km/h
750 05-07-2019 14:25:00 25.3 C 9.83 g/m*3 25.3 C 11.3 km/h
Sensor: Nr:Datum:Temp:Abs-Feuchte:Windchill:Wind:
Aussen-T/F 751 05-07-2019 14:30:00 25.4 C 9.65 g/m*3 25.4 C 14.5 km/h
752 05-07-2019 14:35:00 25.5 C 10.18 g/m*3 25.5 C 8.1 km/h
753 05-07-2019 14:40:00 25.9 C 10.17 g/m*3 25.9 C 6.4 km/h
754 05-07-2019 14:45:00 26.2 C 10.59 g/m*3 26.2 C 9.7 km/h
755 05-07-2019 14:50:00 26.3 C 9.9 g/m*3 26.3 C 4.8 km/h
756 05-07-2019 14:55:00 26.6 C 10.82 g/m*3 26.6 C 4.8 km/h
757 05-07-2019 15:00:00 27 C 10.55 g/m*3 27 C 8.1 km/h
758 05-07-2019 15:05:00 27.2 C 9.89 g/m*3 27.2 C 8.1 km/h
759 05-07-2019 15:10:00 27.3 C 10.2 g/m*3 27.3 C 3.2 km/h
760 05-07-2019 15:15:00 27.3 C 9.94 g/m*3 27.3 C 14.5 km/h
761 05-07-2019 15:20:00 27.2 C 9.89 g/m*3 27.2 C 12.9 km/h
762 05-07-2019 15:25:00 27.1 C 9.83 g/m*3 27.1 C 12.9 km/h
763 05-07-2019 15:30:00 27.1 C 9.83 g/m*3 27.1 C 8.1 km/h
764 05-07-2019 15:35:00 27.3 C 9.68 g/m*3 27.3 C 11.3 km/h
765 05-07-2019 15:40:00 27.6 C 10.11 g/m*3 27.6 C 1.6 km/h
766 05-07-2019 15:45:00 27.8 C 9.95 g/m*3 27.8 C 9.7 km/h
767 05-07-2019 15:50:00 28.2 C 9.9 g/m*3 28.2 C 8.1 km/h
768 05-07-2019 15:55:00 28.3 C 9.95 g/m*3 28.3 C 17.7 km/h
769 05-07-2019 16:00:00 28.3 C 9.95 g/m*3 28.3 C 9.7 km/h
770 05-07-2019 16:05:00 28.3 C 9.68 g/m*3 28.3 C 12.9 km/h
771 05-07-2019 16:10:00 28.6 C 10.12 g/m*3 28.6 C 9.7 km/h
772 05-07-2019 16:15:00 28.6 C 10.4 g/m*3 28.6 C 8.1 km/h
773 05-07-2019 16:20:00 28.9 C 10 g/m*3 28.9 C 6.4 km/h
774 05-07-2019 16:25:00 28.9 C 9.71 g/m*3 28.9 C 11.3 km/h
775 05-07-2019 16:30:00 28.8 C 9.66 g/m*3 28.8 C 9.7 km/h
Sensor: Nr:Datum:Temp:Abs-Feuchte:Windchill:Wind:
Aussen-T/F 776 05-07-2019 16:35:00 29.1 C 10.11 g/m*3 29.1 C 8.1 km/h
777 05-07-2019 16:40:00 29.3 C 10.22 g/m*3 29.3 C 12.9 km/h
778 05-07-2019 16:45:00 29.4 C 9.98 g/m*3 29.4 C 8.1 km/h
779 05-07-2019 16:50:00 29.5 C 9.74 g/m*3 29.5 C 12.9 km/h
780 05-07-2019 16:55:00 29.3 C 9.93 g/m*3 29.3 C 11.3 km/h
781 05-07-2019 17:00:00 29.2 C 9.87 g/m*3 29.2 C 12.9 km/h
782 05-07-2019 17:05:00 29.2 C 9.87 g/m*3 29.2 C 11.3 km/h
783 05-07-2019 17:10:00 29.4 C 9.69 g/m*3 29.4 C 4.8 km/h
784 05-07-2019 17:15:00 29.7 C 10.14 g/m*3 29.7 C 6.4 km/h
785 05-07-2019 17:20:00 29.7 C 10.14 g/m*3 29.7 C 9.7 km/h
786 05-07-2019 17:25:00 29.6 C 10.09 g/m*3 29.6 C 11.3 km/h
787 05-07-2019 17:30:00 29.6 C 10.39 g/m*3 29.6 C 14.5 km/h
788 05-07-2019 17:35:00 29.7 C 10.14 g/m*3 29.7 C 11.3 km/h
789 05-07-2019 17:40:00 29.7 C 9.85 g/m*3 29.7 C 8.1 km/h
790 05-07-2019 17:45:00 29.7 C 9.85 g/m*3 29.7 C 11.3 km/h
791 05-07-2019 17:50:00 29.8 C 10.2 g/m*3 29.8 C 4.8 km/h
792 05-07-2019 17:55:00 29.9 C 9.95 g/m*3 29.9 C 12.9 km/h
793 05-07-2019 18:00:00 29.9 C 10.25 g/m*3 29.9 C 12.9 km/h
794 05-07-2019 18:05:00 29.6 C 10.39 g/m*3 29.6 C 11.3 km/h
795 05-07-2019 18:10:00 29.8 C 10.5 g/m*3 29.8 C 6.4 km/h
796 05-07-2019 18:15:00 29.9 C 10.25 g/m*3 29.9 C 12.9 km/h
797 05-07-2019 18:20:00 29.7 C 10.14 g/m*3 29.7 C 12.9 km/h
798 05-07-2019 18:25:00 29.4 C 9.98 g/m*3 29.4 C 12.9 km/h
799 05-07-2019 18:30:00 29.3 C 10.22 g/m*3 29.3 C 8.1 km/h
800 05-07-2019 18:35:00 29.4 C 10.27 g/m*3 29.4 C 8.1 km/h
Sensor: Nr:Datum:Temp:Abs-Feuchte:Windchill:Wind:
Aussen-T/F 801 05-07-2019 18:40:00 29.4 C 10.27 g/m*3 29.4 C 14.5 km/h
802 05-07-2019 18:45:00 29.3 C 10.8 g/m*3 29.3 C 11.3 km/h
803 05-07-2019 18:50:00 28.9 C 10 g/m*3 28.9 C 11.3 km/h
804 05-07-2019 18:55:00 28.4 C 10.28 g/m*3 28.4 C 9.7 km/h
805 05-07-2019 19:00:00 28.4 C 10.56 g/m*3 28.4 C 12.9 km/h
806 05-07-2019 19:05:00 28.3 C 10.51 g/m*3 28.3 C 8.1 km/h
807 05-07-2019 19:10:00 28.3 C 10.51 g/m*3 28.3 C 9.7 km/h
808 05-07-2019 19:15:00 28.1 C 10.39 g/m*3 28.1 C 8.1 km/h
809 05-07-2019 19:20:00 27.9 C 10.28 g/m*3 27.9 C 8.1 km/h
810 05-07-2019 19:25:00 27.7 C 10.16 g/m*3 27.7 C 8.1 km/h
811 05-07-2019 19:30:00 27.6 C 10.38 g/m*3 27.6 C 6.4 km/h
812 05-07-2019 19:35:00 27.7 C 10.43 g/m*3 27.7 C 8.1 km/h
813 05-07-2019 19:40:00 27.5 C 10.32 g/m*3 27.5 C 12.9 km/h
814 05-07-2019 19:45:00 27.2 C 10.15 g/m*3 27.2 C 4.8 km/h
815 05-07-2019 19:50:00 26.9 C 10.24 g/m*3 26.9 C 9.7 km/h
816 05-07-2019 19:55:00 26.6 C 10.07 g/m*3 26.6 C 8.1 km/h
817 05-07-2019 20:00:00 26.4 C 10.21 g/m*3 26.4 C 6.4 km/h
818 05-07-2019 20:05:00 26.3 C 10.15 g/m*3 26.3 C 6.4 km/h
819 05-07-2019 20:10:00 26.3 C 10.4 g/m*3 26.3 C 6.4 km/h
820 05-07-2019 20:15:00 26.2 C 10.59 g/m*3 26.2 C 4.8 km/h
821 05-07-2019 20:20:00 26.2 C 10.34 g/m*3 26.2 C 6.4 km/h
822 05-07-2019 20:25:00 26.2 C 10.34 g/m*3 26.2 C 4.8 km/h
823 05-07-2019 20:30:00 26.2 C 10.09 g/m*3 26.2 C 4.8 km/h
824 05-07-2019 20:35:00 26.2 C 10.34 g/m*3 26.2 C 4.8 km/h
825 05-07-2019 20:40:00 26 C 10.23 g/m*3 26 C 3.2 km/h
Sensor: Nr:Datum:Temp:Abs-Feuchte:Windchill:Wind:
Aussen-T/F 826 05-07-2019 20:45:00 25.9 C 10.41 g/m*3 25.9 C 1.6 km/h
827 05-07-2019 20:50:00 25.8 C 11.07 g/m*3 25.8 C 1.6 km/h
828 05-07-2019 20:55:00 25.6 C 11.19 g/m*3 25.6 C 0 km/h
829 05-07-2019 21:00:00 25.2 C 11.17 g/m*3 25.2 C 0 km/h
830 05-07-2019 21:05:00 24.7 C 11.09 g/m*3 24.7 C 0 km/h
831 05-07-2019 21:10:00 24.3 C 11.06 g/m*3 24.3 C 0 km/h
832 05-07-2019 21:15:00 24 C 10.88 g/m*3 24 C 1.6 km/h
833 05-07-2019 21:20:00 23.7 C 10.91 g/m*3 23.7 C 0 km/h
834 05-07-2019 21:25:00 23.3 C 11.08 g/m*3 23.3 C 0 km/h
835 05-07-2019 21:30:00 23 C 10.89 g/m*3 23 C 0 km/h
836 05-07-2019 21:35:00 22.7 C 10.91 g/m*3 22.7 C 0 km/h
837 05-07-2019 21:40:00 22.3 C 10.86 g/m*3 22.3 C 0 km/h
838 05-07-2019 21:45:00 22.1 C 10.93 g/m*3 22.1 C 0 km/h
839 05-07-2019 21:50:00 21.8 C 10.74 g/m*3 21.8 C 0 km/h
840 05-07-2019 21:55:00 21.6 C 10.81 g/m*3 21.6 C 1.6 km/h
841 05-07-2019 22:00:00 21.5 C 10.75 g/m*3 21.5 C 1.6 km/h
842 05-07-2019 22:05:00 21.4 C 10.87 g/m*3 21.4 C 0 km/h
843 05-07-2019 22:10:00 21.3 C 10.81 g/m*3 21.3 C 0 km/h
844 05-07-2019 22:15:00 21.2 C 10.75 g/m*3 21.2 C 0 km/h
845 05-07-2019 22:20:00 21.2 C 10.93 g/m*3 21.2 C 0 km/h
846 05-07-2019 22:25:00 21.1 C 10.87 g/m*3 21.1 C 0 km/h
847 05-07-2019 22:30:00 21.1 C 11.06 g/m*3 21.1 C 0 km/h
848 05-07-2019 22:35:00 21 C 10.81 g/m*3 21 C 0 km/h
849 05-07-2019 22:40:00 21.1 C 10.87 g/m*3 21.1 C 1.6 km/h
850 05-07-2019 22:45:00 21.1 C 10.87 g/m*3 21.1 C 0 km/h
Sensor: Nr:Datum:Temp:Abs-Feuchte:Windchill:Wind:
Aussen-T/F 851 05-07-2019 22:50:00 21.1 C 11.06 g/m*3 21.1 C 0 km/h
852 05-07-2019 22:55:00 21.1 C 10.87 g/m*3 21.1 C 0 km/h
853 05-07-2019 23:00:00 21.1 C 10.87 g/m*3 21.1 C 0 km/h
854 05-07-2019 23:05:00 21 C 10.99 g/m*3 21 C 0 km/h
855 05-07-2019 23:10:00 20.9 C 10.93 g/m*3 20.9 C 0 km/h
856 05-07-2019 23:15:00 20.8 C 10.86 g/m*3 20.8 C 0 km/h
857 05-07-2019 23:20:00 20.8 C 11.05 g/m*3 20.8 C 0 km/h
858 05-07-2019 23:25:00 20.7 C 11.16 g/m*3 20.7 C 0 km/h
859 05-07-2019 23:30:00 20.5 C 11.21 g/m*3 20.5 C 0 km/h
860 05-07-2019 23:35:00 20.3 C 11.26 g/m*3 20.3 C 0 km/h
861 05-07-2019 23:40:00 20.1 C 11.13 g/m*3 20.1 C 0 km/h
862 05-07-2019 23:45:00 19.8 C 11.27 g/m*3 19.8 C 0 km/h
863 05-07-2019 23:50:00 19.5 C 11.08 g/m*3 19.5 C 0 km/h
864 05-07-2019 23:55:00 19.3 C 11.11 g/m*3 19.3 C 0 km/h

Legende:
   Min
   Max


Maximal/Minimal-Werte vom 03.07.2019 - 05.07.2019

Sensor Min Max Avg
Temp
(Aussen-T/F)
9.9 °C
03-07-2019  05:45:00
29.9 °C
05-07-2019  17:55:00
18.8 °C
Abs-Feuchte
(Aussen-T/F)
7.18 g/m*3
04-07-2019  15:45:00
11.27 g/m*3
05-07-2019  23:45:00
8.86 g/m*3
Windchill
(Aussen-T/F)
9.9 C
03-07-2019  05:45:00
29.9 C
05-07-2019  17:55:00
18.78 C

Die Daten stammen von einer Davis Vantage Pro 2 Wetter-Station und werden unter Linux mit der Software wview2wettercgi und aufbereitet. Alle Angaben erfolgen ohne Gewähr für ihre Vollständigkeit oder Richtigkeit.
Kontakt: Rainer Krienke krienke@uni-koblenz.de . Meine Webseiten an der Uni Koblenz oder privat.
Version: $Revision: 0.78 $